createdAt,value
2022-11-26T00:02:19.356Z,8.60
2022-11-26T00:04:49.823Z,8.60
2022-11-26T00:07:24.711Z,8.50
2022-11-26T00:09:52.740Z,8.50
2022-11-26T00:12:28.828Z,8.60
2022-11-26T00:15:00.052Z,8.60
2022-11-26T00:17:30.246Z,8.60
2022-11-26T00:19:56.986Z,8.50
2022-11-26T00:22:27.129Z,8.60
2022-11-26T00:24:54.694Z,8.60
2022-11-26T00:27:24.767Z,8.60
2022-11-26T00:29:54.040Z,8.60
2022-11-26T00:32:26.520Z,8.50
2022-11-26T00:34:53.990Z,8.50
2022-11-26T00:37:27.225Z,8.50
2022-11-26T00:39:55.179Z,8.50
2022-11-26T00:42:22.039Z,8.50
2022-11-26T00:44:52.150Z,8.50
2022-11-26T00:47:18.886Z,8.50
2022-11-26T00:49:52.027Z,8.50
2022-11-26T00:52:32.446Z,8.50
2022-11-26T00:54:59.906Z,8.50
2022-11-26T00:57:26.655Z,8.50
2022-11-26T01:02:34.263Z,8.50
2022-11-26T01:05:01.045Z,8.50
2022-11-26T01:07:27.884Z,8.50
2022-11-26T01:09:54.949Z,8.50
2022-11-26T01:12:24.806Z,8.50
2022-11-26T01:14:57.215Z,8.50
2022-11-26T01:17:24.246Z,8.50
2022-11-26T01:19:51.220Z,8.50
2022-11-26T01:22:23.013Z,8.50
2022-11-26T01:24:50.361Z,8.50
2022-11-26T01:27:20.183Z,8.50
2022-11-26T01:29:47.517Z,8.50
2022-11-26T01:32:14.389Z,8.50
2022-11-26T01:34:44.455Z,8.50
2022-11-26T01:37:16.066Z,8.50
2022-11-26T01:39:42.806Z,8.50
2022-11-26T01:42:28.790Z,8.50
2022-11-26T01:44:55.501Z,8.40
2022-11-26T01:47:30.804Z,8.50
2022-11-26T01:50:31.176Z,8.50
2022-11-26T01:53:42.372Z,8.50
2022-11-26T01:56:24.479Z,8.50
2022-11-26T01:59:19.054Z,8.50
2022-11-26T02:01:46.982Z,8.50
2022-11-26T02:04:40.198Z,8.50
2022-11-26T02:07:07.892Z,8.50
2022-11-26T02:09:38.052Z,8.50
2022-11-26T02:12:04.906Z,8.50
2022-11-26T02:14:37.135Z,8.50
2022-11-26T02:17:42.674Z,8.50
2022-11-26T02:20:31.173Z,8.50
2022-11-26T02:23:07.547Z,8.40
2022-11-26T02:25:43.306Z,8.50
2022-11-26T02:28:48.345Z,8.40
2022-11-26T02:31:40.296Z,8.50
2022-11-26T02:35:02.626Z,8.50
2022-11-26T02:37:34.748Z,8.50
2022-11-26T02:40:08.986Z,8.50
2022-11-26T02:42:36.626Z,8.40
2022-11-26T02:45:11.807Z,8.40
2022-11-26T02:47:42.042Z,8.50
2022-11-26T02:50:24.692Z,8.50
2022-11-26T02:52:54.806Z,8.50
2022-11-26T02:55:26.090Z,8.50
2022-11-26T02:57:59.764Z,8.50
2022-11-26T03:00:30.415Z,8.40
2022-11-26T03:03:26.402Z,8.40
2022-11-26T03:05:57.331Z,8.50
2022-11-26T03:08:26.701Z,8.40
2022-11-26T03:10:53.494Z,8.50
2022-11-26T03:13:20.267Z,8.40
2022-11-26T03:15:47.265Z,8.40
2022-11-26T03:18:14.042Z,8.40
2022-11-26T03:20:41.108Z,8.40
2022-11-26T03:23:08.198Z,8.40
2022-11-26T03:25:40.077Z,8.40
2022-11-26T03:28:12.478Z,8.40
2022-11-26T03:30:39.272Z,8.40
2022-11-26T03:33:09.044Z,8.40
2022-11-26T03:35:36.039Z,8.40
2022-11-26T03:38:02.763Z,8.40
2022-11-26T03:40:29.536Z,8.40
2022-11-26T03:42:56.458Z,8.40
2022-11-26T03:45:23.215Z,8.40
2022-11-26T03:47:50.048Z,8.40
2022-11-26T03:50:23.045Z,8.50
2022-11-26T03:52:49.991Z,8.40
2022-11-26T03:55:16.797Z,8.40
2022-11-26T03:57:46.620Z,8.40
2022-11-26T04:00:14.478Z,8.40
2022-11-26T04:02:43.474Z,8.40
2022-11-26T04:05:10.272Z,8.40
2022-11-26T04:07:37.233Z,8.40
2022-11-26T04:10:08.508Z,8.40
2022-11-26T04:12:35.618Z,8.40
2022-11-26T04:15:06.220Z,8.40
2022-11-26T04:17:32.911Z,8.40
2022-11-26T04:19:59.589Z,8.40
2022-11-26T04:22:26.545Z,8.40
2022-11-26T04:24:53.282Z,8.40
2022-11-26T04:27:21.144Z,8.40
2022-11-26T04:29:48.122Z,8.40
2022-11-26T04:32:22.044Z,8.40
2022-11-26T04:34:49.050Z,8.40
2022-11-26T04:37:15.851Z,8.40
2022-11-26T04:39:48.422Z,8.40
2022-11-26T04:42:15.432Z,8.40
2022-11-26T04:44:42.185Z,8.40
2022-11-26T04:47:09.246Z,8.40
2022-11-26T04:49:35.943Z,8.40
2022-11-26T04:52:02.712Z,8.40
2022-11-26T04:54:29.685Z,8.40
2022-11-26T04:56:56.802Z,8.40
2022-11-26T04:59:23.526Z,8.40
2022-11-26T05:01:50.258Z,8.40
2022-11-26T05:04:17.016Z,8.40
2022-11-26T05:06:43.742Z,8.40
2022-11-26T05:09:10.763Z,8.40
2022-11-26T05:11:42.615Z,8.40
2022-11-26T05:14:11.919Z,8.40
2022-11-26T05:16:38.694Z,8.30
2022-11-26T05:19:05.559Z,8.30
2022-11-26T05:21:35.783Z,8.30
2022-11-26T05:24:02.550Z,8.30
2022-11-26T05:26:29.595Z,8.30
2022-11-26T05:28:56.289Z,8.30
2022-11-26T05:31:23.583Z,8.30
2022-11-26T05:33:50.643Z,8.30
2022-11-26T05:36:17.350Z,8.30
2022-11-26T05:38:44.093Z,8.30
2022-11-26T05:41:13.528Z,8.30
2022-11-26T05:43:42.394Z,8.30
2022-11-26T05:46:14.991Z,8.30
2022-11-26T05:48:45.121Z,8.30
2022-11-26T05:51:12.016Z,8.30
2022-11-26T05:53:39.040Z,8.30
2022-11-26T05:56:06.039Z,8.30
2022-11-26T05:58:36.220Z,8.30
2022-11-26T06:01:09.919Z,8.30
2022-11-26T06:03:40.450Z,8.30
2022-11-26T06:06:07.462Z,8.30
2022-11-26T06:08:34.964Z,8.30
2022-11-26T06:11:01.930Z,8.30
2022-11-26T06:13:28.686Z,8.30
2022-11-26T06:15:55.434Z,8.30
2022-11-26T06:18:22.533Z,8.30
2022-11-26T06:20:49.292Z,8.20
2022-11-26T06:23:16.295Z,8.20
2022-11-26T06:25:46.417Z,8.20
2022-11-26T06:28:13.416Z,8.20
2022-11-26T06:30:40.185Z,8.20
2022-11-26T06:33:06.890Z,8.20
2022-11-26T06:35:36.961Z,8.30
2022-11-26T06:38:04.035Z,8.20
2022-11-26T06:40:33.918Z,8.30
2022-11-26T06:43:00.917Z,8.20
2022-11-26T06:45:28.026Z,8.20
2022-11-26T06:47:54.953Z,8.20
2022-11-26T06:50:23.306Z,8.20
2022-11-26T06:52:54.103Z,8.20
2022-11-26T06:55:30.298Z,8.30
2022-11-26T06:57:57.347Z,8.20
2022-11-26T07:00:24.322Z,8.20
2022-11-26T07:02:51.179Z,8.20
2022-11-26T07:05:20.954Z,8.20
2022-11-26T07:07:51.184Z,8.20
2022-11-26T07:10:18.350Z,8.20
2022-11-26T07:12:45.077Z,8.20
2022-11-26T07:15:12.112Z,8.20
2022-11-26T07:17:39.076Z,8.20
2022-11-26T07:20:06.679Z,8.20
2022-11-26T07:22:35.227Z,8.20
2022-11-26T07:25:02.177Z,8.20
2022-11-26T07:27:28.945Z,8.20
2022-11-26T07:29:55.631Z,8.20
2022-11-26T07:32:22.588Z,8.20
2022-11-26T07:34:49.312Z,8.20
2022-11-26T07:37:16.756Z,8.20
2022-11-26T07:39:43.719Z,8.20
2022-11-26T07:42:16.272Z,8.20
2022-11-26T07:44:45.197Z,8.20
2022-11-26T07:47:11.941Z,8.20
2022-11-26T07:52:28.737Z,8.20
2022-11-26T07:54:55.482Z,8.20
2022-11-26T07:57:22.654Z,8.20
2022-11-26T07:59:49.840Z,8.20
2022-11-26T08:02:17.537Z,8.20
2022-11-26T08:04:44.430Z,8.20
2022-11-26T08:07:21.880Z,8.20
2022-11-26T08:09:53.455Z,8.20
2022-11-26T08:12:20.462Z,8.20
2022-11-26T08:14:47.462Z,8.20
2022-11-26T08:17:14.165Z,8.20
2022-11-26T08:19:41.291Z,8.20
2022-11-26T08:22:08.023Z,8.20
2022-11-26T08:24:36.305Z,8.20
2022-11-26T08:27:03.333Z,8.20
2022-11-26T08:29:32.185Z,8.20
2022-11-26T08:31:59.154Z,8.30
2022-11-26T08:34:33.222Z,8.20
2022-11-26T08:37:00.210Z,8.30
2022-11-26T08:39:27.044Z,8.20
2022-11-26T08:41:56.059Z,8.30
2022-11-26T08:44:22.958Z,8.30
2022-11-26T08:46:50.465Z,8.20
2022-11-26T08:49:17.489Z,8.20
2022-11-26T08:51:47.524Z,8.30
2022-11-26T08:54:14.330Z,8.30
2022-11-26T08:56:41.064Z,8.30
2022-11-26T08:59:08.033Z,8.30
2022-11-26T09:01:37.762Z,8.30
2022-11-26T09:04:07.842Z,8.30
2022-11-26T09:06:37.101Z,8.30
2022-11-26T09:09:14.230Z,8.40
2022-11-26T09:11:46.343Z,8.30
2022-11-26T09:14:21.275Z,8.40
2022-11-26T09:16:51.851Z,8.40
2022-11-26T09:19:19.011Z,8.40
2022-11-26T09:21:52.185Z,8.40
2022-11-26T09:24:26.747Z,8.40
2022-11-26T09:26:54.004Z,8.50
2022-11-26T09:29:22.511Z,8.50
2022-11-26T09:32:21.452Z,8.50
2022-11-26T09:34:37.689Z,8.50
2022-11-26T09:37:04.897Z,8.50
2022-11-26T09:39:31.986Z,8.50
2022-11-26T09:42:13.933Z,8.60
2022-11-26T09:44:47.207Z,8.60
2022-11-26T09:47:20.016Z,8.60
2022-11-26T09:50:22.932Z,8.60
2022-11-26T09:53:01.880Z,8.60
2022-11-26T09:55:38.838Z,8.60
2022-11-26T09:58:28.087Z,8.60
2022-11-26T10:01:01.263Z,8.60
2022-11-26T10:03:36.467Z,8.60
2022-11-26T10:06:32.137Z,8.70
2022-11-26T10:09:42.028Z,8.70
2022-11-26T10:12:38.244Z,8.70
2022-11-26T10:15:31.379Z,8.70
2022-11-26T10:18:13.355Z,8.70
2022-11-26T10:21:05.528Z,8.80
2022-11-26T10:23:53.872Z,8.80
2022-11-26T10:26:31.001Z,8.80
2022-11-26T10:29:20.781Z,8.80
2022-11-26T10:31:59.595Z,8.80
2022-11-26T10:34:46.625Z,8.80
2022-11-26T10:37:14.218Z,8.80
2022-11-26T10:39:46.756Z,8.80
2022-11-26T10:42:26.372Z,8.80
2022-11-26T10:44:56.519Z,8.80
2022-11-26T10:47:29.553Z,8.90
2022-11-26T10:50:46.096Z,8.90
2022-11-26T10:53:21.243Z,8.90
2022-11-26T10:55:58.228Z,8.90
2022-11-26T10:58:33.261Z,8.90
2022-11-26T11:01:04.181Z,9.00
2022-11-26T11:06:43.975Z,9.00
2022-11-26T11:09:25.665Z,8.90
2022-11-26T11:12:11.568Z,9.00
2022-11-26T11:14:43.208Z,8.90
2022-11-26T11:17:43.555Z,9.00
2022-11-26T11:20:16.400Z,8.90
2022-11-26T11:22:45.811Z,8.90
2022-11-26T11:25:24.264Z,9.00
2022-11-26T11:28:03.242Z,8.90
2022-11-26T11:30:44.408Z,8.90
2022-11-26T11:33:26.564Z,9.00
2022-11-26T11:36:16.188Z,9.00
2022-11-26T11:38:54.434Z,9.00
2022-11-26T11:41:26.386Z,8.90
2022-11-26T11:44:00.339Z,9.00
2022-11-26T11:46:54.885Z,9.00
2022-11-26T11:49:29.886Z,9.00
2022-11-26T11:52:24.768Z,9.00
2022-11-26T11:55:12.991Z,9.00
2022-11-26T11:57:58.275Z,9.00
2022-11-26T12:00:41.424Z,9.00
2022-11-26T12:03:29.297Z,9.00
2022-11-26T12:05:58.101Z,9.00
2022-11-26T12:08:55.955Z,9.00
2022-11-26T12:11:32.979Z,9.00
2022-11-26T12:14:19.680Z,9.00
2022-11-26T12:16:53.362Z,9.00
2022-11-26T12:19:46.792Z,9.00
2022-11-26T12:22:40.986Z,9.00
2022-11-26T12:25:35.133Z,9.00
2022-11-26T12:28:37.908Z,9.00
2022-11-26T12:31:24.901Z,9.00
2022-11-26T12:34:26.488Z,9.00
2022-11-26T12:36:55.321Z,9.00
2022-11-26T12:39:57.762Z,9.00
2022-11-26T12:42:49.810Z,9.00
2022-11-26T12:45:30.905Z,9.00
2022-11-26T12:48:17.211Z,9.00
2022-11-26T12:50:55.198Z,9.00
2022-11-26T12:53:27.983Z,9.00
2022-11-26T12:56:34.067Z,9.10
2022-11-26T12:59:12.337Z,9.10
2022-11-26T13:01:41.804Z,9.10
2022-11-26T13:04:36.883Z,9.10
2022-11-26T13:07:29.913Z,9.10
2022-11-26T13:10:02.522Z,9.10
2022-11-26T13:12:59.399Z,9.10
2022-11-26T13:15:39.473Z,9.10
2022-11-26T13:18:21.422Z,9.10
2022-11-26T13:21:12.231Z,9.10
2022-11-26T13:24:19.016Z,9.20
2022-11-26T13:27:14.001Z,9.20
2022-11-26T13:30:05.751Z,9.20
2022-11-26T13:33:00.368Z,9.20
2022-11-26T13:35:40.812Z,9.20
2022-11-26T13:38:16.506Z,9.20
2022-11-26T13:41:11.772Z,9.20
2022-11-26T13:44:06.808Z,9.20
2022-11-26T13:47:22.171Z,9.20
2022-11-26T13:49:57.414Z,9.20
2022-11-26T13:52:45.583Z,9.20
2022-11-26T13:55:34.928Z,9.20
2022-11-26T13:58:06.130Z,9.20
2022-11-26T14:00:35.082Z,9.20
2022-11-26T14:03:02.945Z,9.20
2022-11-26T14:05:51.885Z,9.20
2022-11-26T14:08:45.115Z,9.20
2022-11-26T14:11:32.753Z,9.20
2022-11-26T14:14:27.410Z,9.20
2022-11-26T14:17:09.355Z,9.20
2022-11-26T14:19:45.184Z,9.20
2022-11-26T14:22:21.179Z,9.20
2022-11-26T14:24:48.143Z,9.20
2022-11-26T14:27:35.611Z,9.10
2022-11-26T14:30:11.194Z,9.20
2022-11-26T14:33:07.677Z,9.10
2022-11-26T14:35:38.251Z,9.10
2022-11-26T14:38:07.511Z,9.10
2022-11-26T14:40:41.132Z,9.10
2022-11-26T14:43:22.287Z,9.10
2022-11-26T14:46:04.319Z,9.10
2022-11-26T14:48:33.035Z,9.10
2022-11-26T14:51:01.299Z,9.10
2022-11-26T14:53:32.171Z,9.10
2022-11-26T14:55:59.789Z,9.10
2022-11-26T14:58:57.255Z,9.10
2022-11-26T15:04:07.453Z,9.10
2022-11-26T15:06:50.597Z,9.10
2022-11-26T15:09:26.891Z,9.10
2022-11-26T15:12:14.920Z,9.10
2022-11-26T15:14:58.004Z,9.00
2022-11-26T15:17:27.734Z,9.00
2022-11-26T15:19:57.162Z,9.00
2022-11-26T15:22:44.587Z,9.00
2022-11-26T15:25:51.882Z,9.00
2022-11-26T15:28:21.001Z,9.00
2022-11-26T15:31:02.755Z,8.90
2022-11-26T15:33:31.868Z,9.00
2022-11-26T15:35:58.769Z,8.90
2022-11-26T15:38:30.761Z,8.90
2022-11-26T15:41:21.702Z,8.90
2022-11-26T15:43:57.082Z,8.90
2022-11-26T15:46:30.578Z,8.90
2022-11-26T15:49:05.621Z,8.90
2022-11-26T15:51:50.021Z,8.90
2022-11-26T15:54:38.360Z,8.80
2022-11-26T15:57:38.731Z,8.80
2022-11-26T16:00:30.586Z,8.80
2022-11-26T16:02:57.970Z,8.80
2022-11-26T16:05:36.808Z,8.80
2022-11-26T16:08:25.601Z,8.80
2022-11-26T16:11:08.460Z,8.70
2022-11-26T16:13:36.185Z,8.70
2022-11-26T16:16:09.194Z,8.70
2022-11-26T16:18:48.344Z,8.70
2022-11-26T16:21:17.296Z,8.70
2022-11-26T16:23:51.456Z,8.70
2022-11-26T16:26:19.488Z,8.70
2022-11-26T16:28:50.062Z,8.70
2022-11-26T16:31:20.230Z,8.60
2022-11-26T16:33:47.871Z,8.60
2022-11-26T16:36:32.244Z,8.60
2022-11-26T16:39:02.890Z,8.60
2022-11-26T16:41:29.633Z,8.60
2022-11-26T16:43:58.487Z,8.60
2022-11-26T16:46:28.986Z,8.60
2022-11-26T16:48:55.767Z,8.60
2022-11-26T16:51:23.339Z,8.60
2022-11-26T16:53:50.098Z,8.60
2022-11-26T16:56:42.997Z,8.50
2022-11-26T16:59:23.846Z,8.60
2022-11-26T17:01:50.603Z,8.60
2022-11-26T17:04:18.765Z,8.50
2022-11-26T17:06:48.643Z,8.50
2022-11-26T17:09:19.801Z,8.50
2022-11-26T17:11:46.864Z,8.50
2022-11-26T17:14:13.812Z,8.50
2022-11-26T17:16:41.626Z,8.50
2022-11-26T17:19:14.342Z,8.50
2022-11-26T17:21:42.849Z,8.50
2022-11-26T17:24:10.226Z,8.50
2022-11-26T17:26:37.555Z,8.50
2022-11-26T17:29:04.376Z,8.50
2022-11-26T17:31:31.579Z,8.50
2022-11-26T17:33:58.386Z,8.40
2022-11-26T17:36:25.608Z,8.40
2022-11-26T17:38:52.429Z,8.40
2022-11-26T17:41:22.337Z,8.40
2022-11-26T17:43:49.541Z,8.40
2022-11-26T17:46:22.143Z,8.40
2022-11-26T17:48:51.441Z,8.40
2022-11-26T17:51:21.430Z,8.40
2022-11-26T17:53:48.247Z,8.40
2022-11-26T17:56:24.459Z,8.40
2022-11-26T17:58:51.341Z,8.40
2022-11-26T18:01:25.977Z,8.40
2022-11-26T18:03:52.965Z,8.40
2022-11-26T18:06:48.566Z,8.40
2022-11-26T18:09:15.572Z,8.40
2022-11-26T18:11:49.964Z,8.40
2022-11-26T18:14:17.871Z,8.40
2022-11-26T18:16:44.951Z,8.40
2022-11-26T18:19:13.641Z,8.40
2022-11-26T18:21:43.778Z,8.40
2022-11-26T18:24:11.687Z,8.30
2022-11-26T18:26:39.965Z,8.40
2022-11-26T18:29:06.941Z,8.30
2022-11-26T18:31:39.684Z,8.40
2022-11-26T18:34:14.785Z,8.30
2022-11-26T18:36:41.758Z,8.40
2022-11-26T18:39:08.671Z,8.30
2022-11-26T18:41:38.189Z,8.30
2022-11-26T18:44:05.138Z,8.30
2022-11-26T18:46:32.832Z,8.30
2022-11-26T18:49:00.759Z,8.30
2022-11-26T18:51:27.983Z,8.30
2022-11-26T18:53:54.752Z,8.30
2022-11-26T18:56:24.674Z,8.30
2022-11-26T18:58:52.488Z,8.30
2022-11-26T19:01:25.708Z,8.30
2022-11-26T19:03:57.038Z,8.30
2022-11-26T19:06:26.108Z,8.30
2022-11-26T19:09:06.776Z,8.30
2022-11-26T19:11:33.977Z,8.30
2022-11-26T19:14:00.770Z,8.30
2022-11-26T19:16:28.726Z,8.30
2022-11-26T19:18:55.700Z,8.30
2022-11-26T19:21:28.323Z,8.30
2022-11-26T19:23:57.494Z,8.30
2022-11-26T19:26:24.650Z,8.30
2022-11-26T19:28:52.556Z,8.30
2022-11-26T19:31:24.425Z,8.30
2022-11-26T19:34:07.822Z,8.30
2022-11-26T19:36:40.735Z,8.30
2022-11-26T19:39:09.079Z,8.30
2022-11-26T19:41:35.910Z,8.30
2022-11-26T19:44:04.084Z,8.30
2022-11-26T19:46:31.955Z,8.40
2022-11-26T19:49:04.061Z,8.30
2022-11-26T19:51:30.855Z,8.30
2022-11-26T19:54:05.181Z,8.30
2022-11-26T19:56:33.146Z,8.30
2022-11-26T19:59:02.471Z,8.30
2022-11-26T20:01:31.891Z,8.30
2022-11-26T20:04:01.402Z,8.30
2022-11-26T20:06:32.179Z,8.30
2022-11-26T20:08:59.254Z,8.30
2022-11-26T20:11:27.813Z,8.30
2022-11-26T20:13:55.150Z,8.30
2022-11-26T20:16:27.882Z,8.30
2022-11-26T20:18:55.343Z,8.30
2022-11-26T20:21:36.121Z,8.30
2022-11-26T20:24:06.992Z,8.30
2022-11-26T20:26:36.470Z,8.30
2022-11-26T20:29:06.447Z,8.30
2022-11-26T20:31:34.206Z,8.30
2022-11-26T20:34:07.258Z,8.20
2022-11-26T20:36:33.996Z,8.30
2022-11-26T20:39:02.191Z,8.20
2022-11-26T20:41:29.979Z,8.20
2022-11-26T20:43:59.360Z,8.20
2022-11-26T20:46:29.481Z,8.20
2022-11-26T20:48:59.595Z,8.20
2022-11-26T20:51:26.353Z,8.20
2022-11-26T20:53:54.001Z,8.20
2022-11-26T20:56:22.217Z,8.20
2022-11-26T20:58:50.771Z,8.20
2022-11-26T21:01:28.826Z,8.20
2022-11-26T21:03:56.584Z,8.10
2022-11-26T21:06:29.540Z,8.10
2022-11-26T21:09:01.731Z,8.10
2022-11-26T21:11:31.598Z,8.10
2022-11-26T21:14:00.016Z,8.10
2022-11-26T21:16:27.976Z,8.00
2022-11-26T21:18:54.956Z,8.10
2022-11-26T21:21:22.417Z,8.00
2022-11-26T21:23:54.434Z,8.00
2022-11-26T21:26:24.503Z,8.00
2022-11-26T21:28:58.714Z,8.00
2022-11-26T21:31:27.669Z,8.00
2022-11-26T21:33:57.288Z,7.90
2022-11-26T21:36:24.987Z,7.90
2022-11-26T21:38:52.012Z,7.90
2022-11-26T21:41:20.176Z,7.90
2022-11-26T21:43:47.666Z,7.80
2022-11-26T21:46:26.249Z,7.90
2022-11-26T21:48:54.414Z,7.80
2022-11-26T21:51:22.002Z,7.80
2022-11-26T21:53:51.982Z,7.80
2022-11-26T21:56:21.822Z,7.80
2022-11-26T21:58:49.356Z,7.70
2022-11-26T22:01:37.354Z,7.70
2022-11-26T22:04:08.053Z,7.70
2022-11-26T22:06:35.417Z,7.70
2022-11-26T22:09:03.554Z,7.60
2022-11-26T22:11:33.154Z,7.60
2022-11-26T22:13:59.918Z,7.60
2022-11-26T22:16:30.532Z,7.60
2022-11-26T22:18:58.977Z,7.60
2022-11-26T22:21:38.872Z,7.50
2022-11-26T22:24:20.847Z,7.50
2022-11-26T22:26:50.251Z,7.50
2022-11-26T22:29:19.596Z,7.50
2022-11-26T22:34:29.469Z,7.50
2022-11-26T22:36:56.177Z,7.40
2022-11-26T22:39:22.966Z,7.40
2022-11-26T22:42:01.980Z,7.40
2022-11-26T22:44:28.710Z,7.40
2022-11-26T22:46:58.199Z,7.30
2022-11-26T22:49:25.191Z,7.30
2022-11-26T22:51:54.792Z,7.30
2022-11-26T22:54:22.409Z,7.30
2022-11-26T22:56:49.201Z,7.30
2022-11-26T22:59:16.302Z,7.30
2022-11-26T23:01:43.341Z,7.20
2022-11-26T23:04:11.203Z,7.20
2022-11-26T23:06:41.076Z,7.20
2022-11-26T23:09:09.375Z,7.20
2022-11-26T23:11:43.719Z,7.20
2022-11-26T23:14:13.736Z,7.10
2022-11-26T23:16:43.813Z,7.10
2022-11-26T23:19:14.674Z,7.10
2022-11-26T23:21:45.017Z,7.00
2022-11-26T23:24:13.608Z,7.10
2022-11-26T23:26:43.834Z,7.00
2022-11-26T23:29:12.040Z,7.00
2022-11-26T23:31:44.548Z,7.00
2022-11-26T23:34:18.618Z,7.00
2022-11-26T23:36:48.685Z,7.00
2022-11-26T23:39:15.392Z,7.00
2022-11-26T23:41:43.703Z,7.00
2022-11-26T23:44:13.837Z,7.00
2022-11-26T23:46:40.702Z,7.00
2022-11-26T23:49:07.466Z,6.90
2022-11-26T23:51:34.456Z,6.90
2022-11-26T23:54:04.155Z,6.90
2022-11-26T23:56:33.180Z,6.90
2022-11-26T23:59:07.392Z,6.90
